Saturday, April 19, 2014
14:44 UTC
  |  Log In   |  Register Free
Airport Search:

Page Field Airport
(KFMY)

FAA data valid effective April 3, 2014 until May 29, 2014 (unless otherwise noted).

 
 
 
 
 
 
 
 
 
 
 
 
 
 

Current Aviation Weather for Page Field Airport (KFMY)

The most recent METAR observation for KFMY was updated at: 1353 UTC
METAR Summary (Translated METAR)
KFMY
191353Z 29008KT 10SM SCT022 BKN041 25/18 A2997 RMK AO2 SLP150 T02500183
KRSW
(6.5 nm SE from KFMY)
191353Z 29007KT 10SM SCT025 SCT039 24/18 A2997 RMK AO2 SLP147 T02440183
TAF Summary (Translated TAF)
KFMY
191120Z 1912/2012 27008KT P6SM SCT025 BKN035 FM191500 29015G24KT P6SM FEW025 SCT035 FM200200 32008KT P6SM FEW035 SCT250
KRSW
(6.5 nm SE from KFMY)
191151Z 1912/2012 27008KT P6SM BKN025 BKN035 FM191500 28014G23KT P6SM FEW025 SCT035 FM200200 29006KT P6SM FEW035 FEW250
  Airport Weather Conditions for KFMY

 Current Weather at FMY
77° F
Mostly Cloudy
West winds at 9.2 mph
FMY NOAA Radar

Pressure: 29.97 in
Humidity: 66%
Wind: West at 9.2 MPH (8 KT)
Dew Point: 64.9°F
Visibility: 10.00 mi


Airport Weather Forecast for KFMY

Translated METAR and TAF for KFMY
Translated METAR for KFMY (1444 UTC 19 April 2014)
found at http://aviationweather.gov/adds/metars/
 
METAR text: KFMY 191406Z 31012KT 10SM BKN024 BKN041 24/18 A2997 RMK AO2 T02440178
Conditions at: KFMY (FORT MYERS , FL, US) observed 1406 UTC 19 April 2014
Temperature: 24.4°C (76°F)
Dewpoint: 17.8°C (64°F) [RH = 67%]
Pressure (altimeter): 29.97 inches Hg (1015.0 mb)
Winds: from the NW (310 degrees) at 14 MPH (12 knots; 6.2 m/s)
Visibility: 10 or more miles (16+ km)
Ceiling: 2400 feet AGL
Clouds: broken clouds at 2400 feet AGL
broken clouds at 4100 feet AGL
Weather: no significant weather observed at this time
Translated TAF for KFMY
Forecast for: KFMY (FORT MYERS , FL, US)
TAF Text: KFMY 191120Z 1912/2012 27008KT P6SM SCT025 BKN035
Forecast period: 1200 to 1500 UTC 19 April 2014
Forecast type: FROM: standard forecast or significant change
Winds: from the W (270 degrees) at 9 MPH (8 knots; 4.2 m/s)
Visibility: 6 or more miles (10+ km)
Ceiling: 3500 feet AGL
Clouds: scattered clouds at 2500 feet AGL
broken clouds at 3500 feet AGL
Weather: no significant weather forecast for this period
TAF Text: FM191500 29015G24KT P6SM FEW025 SCT035
Forecast period: 1500 UTC 19 April 2014 to 0200 UTC 20 April 2014
Forecast type: FROM: standard forecast or significant change
Winds: from the WNW (290 degrees) at 17 MPH (15 knots; 7.8 m/s)
gusting to 28 MPH (24 knots; 12.5 m/s)
Visibility: 6 or more miles (10+ km)
Clouds: few clouds at 2500 feet AGL
scattered clouds at 3500 feet AGL
Weather: no significant weather forecast for this period
TAF Text: FM200200 32008KT P6SM FEW035 SCT250
Forecast period: 0200 to 1200 UTC 20 April 2014
Forecast type: FROM: standard forecast or significant change
Winds: from the NW (320 degrees) at 9 MPH (8 knots; 4.2 m/s)
Visibility: 6 or more miles (10+ km)
Clouds: few clouds at 3500 feet AGL
scattered clouds at 25000 feet AGL
Weather: no significant weather forecast for this period

Find All Airport Services Find A Hotel Find A Rental Car Find A Golf Course Find A Restaurant $100 Hamburger



FBO's on the Field
FBO Company Facility Photos Services Transportation Aviation Fuel Prices: Prices include tax
Catering Weather Repair Courtesy Rental Type 100LL JetA JetA+ MOGAS 8087
 
Base Operations at Page Field

Currently rated 4.8 by 2 people
FS:Avfuel
Last Updated: Apr-15
Login to update fuel prices
SS:
Contact Base Operations at Page FieldMore FBO Information
 
Add another FBO Facility Photos Catering Weather Repair Courtesy Rental Type 100LL JetA JetA+ MOGAS 8087
Services Transportation Aviation Fuel Prices: Prices include tax


GlobalAir.com Airport Resource Center model-print
model-print
model-print
model-print